This is the latest recevied weather packets stored in our database for station/object W6JCZ-13. If no packets are shown the sender has not sent any weather packets the latest 1 day(s).
| Time | Temp. | Humidity | Pressure | Rain* | Wind** | Luminosity | Snow |
|---|---|---|---|---|---|---|---|
| 1778097918 | 22.22° C | 58% | 1018.1 hPa | 0 mm | - | - | - |
| 1778081717 | 16.11° C | 82% | 1018.7 hPa | 0 mm | - | - | - |
| 1778081117 | 16.11° C | 82% | 1018.7 hPa | 0 mm | - | - | - |
| 1778074517 | 13.89° C | 86% | 1017.9 hPa | 0 mm | - | - | - |
| 1778072717 | 14.44° C | 87% | 1017.7 hPa | 0 mm | - | - | - |
| 1778071517 | 14.44° C | 86% | 1017.7 hPa | 0 mm | - | - | - |
| 1778070917 | 14.44° C | 86% | 1017.6 hPa | 0 mm | - | - | - |
| 1778070317 | 14.44° C | 86% | 1017.5 hPa | 0 mm | - | - | - |
| 1778069117 | 14.44° C | 85% | 1017.4 hPa | 0 mm | - | - | - |
| 1778067917 | 14.44° C | 85% | 1017.3 hPa | 0 mm | - | - | - |
| 1778066717 | 14.44° C | 85% | 1017.2 hPa | 0 mm | - | - | - |
| 1778066117 | 15° C | 85% | 1017.1 hPa | 0 mm | - | - | - |
| 1778064917 | 14.44° C | 85% | 1016.9 hPa | 0 mm | - | - | - |
| 1778064317 | 14.44° C | 85% | 1016.9 hPa | 0 mm | - | - | - |
| 1778063717 | 14.44° C | 85% | 1016.7 hPa | 0 mm | - | - | - |
| 1778063117 | 14.44° C | 85% | 1016.7 hPa | 0 mm | - | - | - |
| 1778061916 | 15° C | 85% | 1016.5 hPa | 0 mm | - | - | - |
| 1778059517 | 15° C | 84% | 1016.5 hPa | 0 mm | - | - | - |
| 1778057716 | 15° C | 84% | 1016.5 hPa | 0 mm | - | - | - |
| 1778057116 | 15° C | 84% | 1016.5 hPa | 0 mm | - | - | - |
| 1778052316 | 15.56° C | 81% | 1016.1 hPa | 0 mm | - | - | - |
| 1778051717 | 15.56° C | 81% | 1016 hPa | 0 mm | - | - | - |
| 1778050517 | 15.56° C | 81% | 1015.8 hPa | 0 mm | - | - | - |
| 1778049317 | 15.56° C | 80% | 1015.7 hPa | 0 mm | - | - | - |
| 1778048717 | 15.56° C | 80% | 1015.7 hPa | 0 mm | - | - | - |
* Rain latest hour (hover to see other rain measurements)
** Current wind speed in m/s (hover to see current wind gust speed)